createdAt,value
2018-04-14T00:00:54.086Z,10.40
2018-04-14T00:03:22.366Z,10.30
2018-04-14T00:05:50.675Z,10.40
2018-04-14T00:08:18.931Z,10.60
2018-04-14T00:10:47.262Z,10.60
2018-04-14T00:13:15.583Z,10.70
2018-04-14T00:15:43.841Z,10.60
2018-04-14T00:18:12.153Z,10.60
2018-04-14T00:20:40.526Z,10.60
2018-04-14T00:23:08.787Z,10.60
2018-04-14T00:25:37.057Z,10.60
2018-04-14T00:28:05.428Z,10.50
2018-04-14T00:30:33.736Z,10.50
2018-04-14T00:33:01.980Z,10.40
2018-04-14T00:35:30.260Z,10.40
2018-04-14T00:38:00.253Z,10.40
2018-04-14T00:40:28.596Z,10.40
2018-04-14T00:42:57.702Z,10.40
2018-04-14T00:45:26.713Z,10.50
2018-04-14T00:47:54.997Z,10.40
2018-04-14T00:50:23.288Z,10.50
2018-04-14T00:52:51.573Z,10.50
2018-04-14T00:55:19.872Z,10.50
2018-04-14T00:57:48.159Z,10.50
2018-04-14T01:00:17.241Z,10.40
2018-04-14T01:02:46.256Z,10.40
2018-04-14T01:05:15.303Z,10.40
2018-04-14T01:07:43.622Z,10.40
2018-04-14T01:10:12.650Z,10.40
2018-04-14T01:12:40.960Z,10.30
2018-04-14T01:15:09.231Z,10.20
2018-04-14T01:17:37.535Z,10.20
2018-04-14T01:20:05.839Z,10.30
2018-04-14T01:22:34.085Z,10.30
2018-04-14T01:25:02.442Z,10.40
2018-04-14T01:27:30.668Z,10.40
2018-04-14T01:29:58.928Z,10.40
2018-04-14T01:32:28.032Z,10.40
2018-04-14T01:34:56.272Z,10.40
2018-04-14T01:37:24.538Z,10.50
2018-04-14T01:39:52.858Z,10.50
2018-04-14T01:42:21.184Z,10.40
2018-04-14T01:44:49.436Z,10.50
2018-04-14T01:47:18.637Z,10.50
2018-04-14T01:49:46.933Z,10.60
2018-04-14T01:52:15.200Z,10.60
2018-04-14T01:54:43.477Z,10.60
2018-04-14T01:57:11.779Z,10.60
2018-04-14T01:59:40.156Z,10.60
2018-04-14T02:02:08.419Z,10.50
2018-04-14T02:04:37.705Z,10.40
2018-04-14T02:07:06.000Z,10.30
2018-04-14T02:09:34.268Z,10.20
2018-04-14T02:12:02.575Z,10.20
2018-04-14T02:14:31.081Z,10.10
2018-04-14T02:17:00.124Z,10.00
2018-04-14T02:19:28.506Z,10.00
2018-04-14T02:21:56.806Z,10.10
2018-04-14T02:24:25.063Z,10.10
2018-04-14T02:26:53.332Z,10.20
2018-04-14T02:29:21.720Z,10.20
2018-04-14T02:31:50.348Z,10.20
2018-04-14T02:34:19.346Z,10.10
2018-04-14T02:36:47.696Z,10.10
2018-04-14T02:39:16.440Z,10.10
2018-04-14T02:41:44.866Z,10.00
2018-04-14T02:44:13.154Z,10.10
2018-04-14T02:46:42.177Z,9.90
2018-04-14T02:49:10.436Z,9.90
2018-04-14T02:51:38.773Z,9.90
2018-04-14T02:54:07.156Z,9.90
2018-04-14T02:56:35.410Z,9.80
2018-04-14T02:59:03.712Z,9.80
2018-04-14T03:01:32.064Z,9.90
2018-04-14T03:04:00.355Z,9.90
2018-04-14T03:06:28.752Z,9.90
2018-04-14T03:08:57.044Z,9.90
2018-04-14T03:11:26.075Z,9.80
2018-04-14T03:13:54.332Z,9.80
2018-04-14T03:16:22.604Z,9.80
2018-04-14T03:18:50.934Z,9.80
2018-04-14T03:21:19.220Z,9.80
2018-04-14T03:23:47.501Z,9.80
2018-04-14T03:26:15.814Z,9.90
2018-04-14T03:28:44.252Z,9.80
2018-04-14T03:31:12.577Z,9.80
2018-04-14T03:33:40.860Z,9.80
2018-04-14T03:36:09.178Z,9.80
2018-04-14T03:38:38.482Z,9.80
2018-04-14T03:41:06.732Z,9.70
2018-04-14T03:43:34.967Z,9.70
2018-04-14T03:46:03.281Z,9.80
2018-04-14T03:48:31.575Z,9.70
2018-04-14T03:50:59.867Z,9.80
2018-04-14T03:53:28.166Z,9.80
2018-04-14T03:55:56.478Z,9.80
2018-04-14T03:58:24.723Z,9.80
2018-04-14T04:00:53.054Z,9.80
2018-04-14T04:03:22.225Z,9.80
2018-04-14T04:05:50.528Z,9.70
2018-04-14T04:08:18.803Z,9.70
2018-04-14T04:10:47.185Z,9.70
2018-04-14T04:13:15.436Z,9.70
2018-04-14T04:15:43.737Z,9.60
2018-04-14T04:18:12.849Z,9.70
2018-04-14T04:21:02.689Z,9.70
2018-04-14T04:23:42.876Z,9.70
2018-04-14T04:26:10.872Z,9.80
2018-04-14T04:28:38.899Z,9.70
2018-04-14T04:31:07.037Z,9.70
2018-04-14T04:33:35.046Z,9.70
2018-04-14T04:36:03.111Z,9.70
2018-04-14T04:38:31.209Z,9.80
2018-04-14T04:41:00.307Z,9.90
2018-04-14T04:43:28.318Z,9.90
2018-04-14T04:45:57.114Z,9.90
2018-04-14T04:48:25.924Z,9.90
2018-04-14T04:50:53.965Z,9.90
2018-04-14T04:53:21.990Z,9.90
2018-04-14T04:55:50.160Z,9.80
2018-04-14T04:58:18.265Z,9.90
2018-04-14T05:00:47.813Z,9.80
2018-04-14T05:03:15.886Z,9.80
2018-04-14T05:05:43.932Z,9.80
2018-04-14T05:08:11.956Z,9.80
2018-04-14T05:10:40.096Z,9.80
2018-04-14T05:13:08.140Z,9.80
2018-04-14T05:15:36.940Z,9.80
2018-04-14T05:18:05.726Z,9.90
2018-04-14T05:20:34.488Z,9.90
2018-04-14T05:23:02.555Z,9.80
2018-04-14T05:25:30.576Z,9.90
2018-04-14T05:27:58.687Z,9.90
2018-04-14T05:30:26.723Z,9.90
2018-04-14T05:32:54.928Z,9.90
2018-04-14T05:35:23.019Z,9.90
2018-04-14T05:37:51.014Z,9.90
2018-04-14T05:40:19.842Z,10.00
2018-04-14T05:42:48.057Z,10.00
2018-04-14T05:45:16.868Z,10.10
2018-04-14T05:47:45.715Z,10.20
2018-04-14T05:50:13.893Z,10.20
2018-04-14T05:52:41.901Z,10.30
2018-04-14T05:55:10.318Z,10.40
2018-04-14T05:57:38.428Z,10.30
2018-04-14T06:00:06.577Z,10.40
2018-04-14T06:02:35.651Z,10.50
2018-04-14T06:05:03.687Z,10.40
2018-04-14T06:07:32.498Z,10.50
2018-04-14T06:10:00.551Z,10.50
2018-04-14T06:12:29.340Z,10.50
2018-04-14T06:14:58.301Z,10.50
2018-04-14T06:17:27.126Z,10.50
2018-04-14T06:19:55.218Z,10.50
2018-04-14T06:22:23.324Z,10.50
2018-04-14T06:24:52.200Z,10.50
2018-04-14T06:27:20.251Z,10.50
2018-04-14T06:29:48.332Z,10.50
2018-04-14T06:32:16.396Z,10.60
2018-04-14T06:34:44.385Z,10.60
2018-04-14T06:37:12.455Z,10.50
2018-04-14T06:39:40.478Z,10.60
2018-04-14T06:42:09.257Z,10.70
2018-04-14T06:44:38.077Z,10.70
2018-04-14T06:47:06.145Z,10.70
2018-04-14T06:49:34.244Z,10.80
2018-04-14T06:52:02.286Z,10.70
2018-04-14T06:54:30.375Z,10.80
2018-04-14T06:56:58.397Z,10.80
2018-04-14T06:59:27.177Z,10.90
2018-04-14T07:01:56.076Z,10.90
2018-04-14T07:04:24.918Z,10.90
2018-04-14T07:06:52.911Z,10.90
2018-04-14T07:09:21.001Z,10.80
2018-04-14T07:11:49.033Z,10.80
2018-04-14T07:14:17.093Z,10.80
2018-04-14T07:16:45.091Z,10.70
2018-04-14T07:19:13.093Z,10.70
2018-04-14T07:21:41.889Z,10.70
2018-04-14T07:24:10.804Z,10.70
2018-04-14T07:26:38.841Z,10.70
2018-04-14T07:29:06.901Z,10.70
2018-04-14T07:31:34.924Z,10.60
2018-04-14T07:34:02.971Z,10.70
2018-04-14T07:36:31.060Z,10.70
2018-04-14T07:38:59.095Z,10.80
2018-04-14T07:41:27.208Z,10.70
2018-04-14T07:43:55.269Z,10.70
2018-04-14T07:46:23.305Z,10.70
2018-04-14T07:48:52.128Z,10.60
2018-04-14T07:51:20.160Z,10.50
2018-04-14T07:53:48.988Z,10.60
2018-04-14T07:56:17.060Z,10.60
2018-04-14T07:58:45.084Z,10.60
2018-04-14T08:01:13.888Z,10.50
2018-04-14T08:03:42.726Z,10.50
2018-04-14T08:06:10.805Z,10.50
2018-04-14T08:08:38.816Z,10.50
2018-04-14T08:11:06.923Z,10.50
2018-04-14T08:13:34.955Z,10.40
2018-04-14T08:16:03.003Z,10.40
2018-04-14T08:18:31.912Z,10.40
2018-04-14T08:21:00.074Z,10.30
2018-04-14T08:23:28.087Z,10.30
2018-04-14T08:25:56.180Z,10.30
2018-04-14T08:28:24.292Z,10.30
2018-04-14T08:30:52.297Z,10.30
2018-04-14T08:33:20.394Z,10.40
2018-04-14T08:35:48.460Z,10.40
2018-04-14T08:38:16.533Z,10.40
2018-04-14T08:40:44.565Z,10.40
2018-04-14T08:43:13.662Z,10.50
2018-04-14T08:45:42.487Z,10.50
2018-04-14T08:48:10.487Z,10.50
2018-04-14T08:50:38.573Z,10.50
2018-04-14T08:53:06.643Z,10.40
2018-04-14T08:55:34.646Z,10.40
2018-04-14T08:58:02.757Z,10.30
2018-04-14T09:00:31.045Z,10.40
2018-04-14T09:02:59.264Z,10.50
2018-04-14T09:05:28.084Z,10.40
2018-04-14T09:07:56.257Z,10.40
2018-04-14T09:10:24.339Z,10.40
2018-04-14T09:12:52.401Z,10.50
2018-04-14T09:15:20.473Z,10.50
2018-04-14T09:17:48.747Z,10.60
2018-04-14T09:20:17.253Z,10.50
2018-04-14T09:22:46.150Z,10.50
2018-04-14T09:25:14.915Z,10.40
2018-04-14T09:27:43.688Z,10.50
2018-04-14T09:30:12.440Z,10.50
2018-04-14T09:32:40.712Z,10.40
2018-04-14T09:35:08.987Z,10.40
2018-04-14T09:37:37.263Z,10.40
2018-04-14T09:40:05.574Z,10.40
2018-04-14T09:42:33.838Z,10.40
2018-04-14T09:45:02.105Z,10.40
2018-04-14T09:47:30.411Z,10.40
2018-04-14T09:49:58.678Z,10.40
2018-04-14T09:52:26.957Z,10.40
2018-04-14T09:54:55.273Z,10.30
2018-04-14T09:57:24.395Z,10.30
2018-04-14T09:59:52.895Z,10.30
2018-04-14T10:02:21.206Z,10.30
2018-04-14T10:04:49.566Z,10.30
2018-04-14T10:07:17.821Z,10.30
2018-04-14T10:09:46.120Z,10.30
2018-04-14T10:12:14.378Z,10.30
2018-04-14T10:14:42.653Z,10.40
2018-04-14T10:17:11.968Z,10.40
2018-04-14T10:19:40.771Z,10.40
2018-04-14T10:22:09.662Z,10.40
2018-04-14T10:24:38.465Z,10.40
2018-04-14T10:27:08.991Z,10.40
2018-04-14T10:29:37.655Z,10.40
2018-04-14T10:32:06.264Z,10.50
2018-04-14T10:34:35.052Z,10.40
2018-04-14T10:37:03.833Z,10.50
2018-04-14T10:39:32.564Z,10.50
2018-04-14T10:42:01.200Z,10.50
2018-04-14T10:44:30.180Z,10.40
2018-04-14T10:46:58.986Z,10.30
2018-04-14T10:49:27.781Z,10.40
2018-04-14T10:51:56.440Z,10.40
2018-04-14T10:54:25.150Z,10.40
2018-04-14T10:56:53.940Z,10.50
2018-04-14T10:59:22.933Z,10.50
2018-04-14T11:01:51.520Z,10.50
2018-04-14T11:04:20.305Z,10.60
2018-04-14T11:06:48.977Z,10.50
2018-04-14T11:09:18.495Z,10.50
2018-04-14T11:11:47.284Z,10.50
2018-04-14T11:14:15.950Z,10.50
2018-04-14T11:16:45.457Z,10.50
2018-04-14T11:19:14.146Z,10.50
2018-04-14T11:21:42.913Z,10.40
2018-04-14T11:24:11.512Z,10.40
2018-04-14T11:26:40.403Z,10.40
2018-04-14T11:29:10.457Z,10.40
2018-04-14T11:31:38.773Z,10.40
2018-04-14T11:34:07.066Z,10.30
2018-04-14T11:36:35.339Z,10.30
2018-04-14T11:39:03.603Z,10.30
2018-04-14T11:41:31.856Z,10.30
2018-04-14T11:44:00.169Z,10.40
2018-04-14T11:46:28.416Z,10.40
2018-04-14T11:48:56.729Z,10.30
2018-04-14T11:51:24.999Z,10.30
2018-04-14T11:53:53.273Z,10.30
2018-04-14T11:56:21.738Z,10.30
2018-04-14T11:58:49.996Z,10.30
2018-04-14T12:01:18.284Z,10.30
2018-04-14T12:03:46.563Z,10.30
2018-04-14T12:06:14.828Z,10.30
2018-04-14T12:08:43.238Z,10.20
2018-04-14T12:11:11.488Z,10.30
2018-04-14T12:13:39.819Z,10.30
2018-04-14T12:16:09.375Z,10.30
2018-04-14T12:18:38.911Z,10.30
2018-04-14T12:21:07.695Z,10.30
2018-04-14T12:23:36.078Z,10.40
2018-04-14T12:26:04.350Z,10.40
2018-04-14T12:28:32.661Z,10.30
2018-04-14T12:31:00.921Z,10.30
2018-04-14T12:33:30.041Z,10.40
2018-04-14T12:35:58.331Z,10.30
2018-04-14T12:38:26.676Z,10.30
2018-04-14T12:40:55.724Z,10.30
2018-04-14T12:43:24.004Z,10.30
2018-04-14T12:45:52.352Z,10.30
2018-04-14T12:48:21.578Z,10.30
2018-04-14T12:50:49.859Z,10.40
2018-04-14T12:53:18.150Z,10.30
2018-04-14T12:55:46.736Z,10.30
2018-04-14T12:58:15.100Z,10.30
2018-04-14T13:00:43.388Z,10.40
2018-04-14T13:03:11.705Z,10.40
2018-04-14T13:05:40.003Z,10.40
2018-04-14T13:08:08.481Z,10.40
2018-04-14T13:10:36.794Z,10.60
2018-04-14T13:13:05.156Z,10.60
2018-04-14T13:15:33.559Z,10.70
2018-04-14T13:18:01.872Z,10.70
2018-04-14T13:20:30.983Z,10.80
2018-04-14T13:22:59.263Z,10.80
2018-04-14T13:25:27.616Z,10.80
2018-04-14T13:27:55.977Z,10.80
2018-04-14T13:30:24.352Z,10.80
2018-04-14T13:32:52.763Z,10.90
2018-04-14T13:35:21.048Z,10.90
2018-04-14T13:37:49.316Z,10.90
2018-04-14T13:40:17.627Z,10.80
2018-04-14T13:42:46.028Z,10.90
2018-04-14T13:45:14.320Z,10.80
2018-04-14T13:47:42.584Z,10.80
2018-04-14T13:50:10.902Z,10.70
2018-04-14T13:52:39.166Z,10.70
2018-04-14T13:55:09.147Z,10.70
2018-04-14T13:57:37.554Z,10.70
2018-04-14T14:00:06.650Z,10.80
2018-04-14T14:02:34.916Z,10.80
2018-04-14T14:05:03.957Z,10.90
2018-04-14T14:07:32.367Z,10.90
2018-04-14T14:10:00.618Z,10.80
2018-04-14T14:12:28.920Z,10.90
2018-04-14T14:14:58.741Z,10.80
2018-04-14T14:17:27.807Z,10.80
2018-04-14T14:19:56.120Z,10.80
2018-04-14T14:22:24.482Z,10.80
2018-04-14T14:24:52.868Z,10.80
2018-04-14T14:27:21.255Z,10.90
2018-04-14T14:29:50.300Z,10.70
2018-04-14T14:32:18.597Z,10.70
2018-04-14T14:34:46.895Z,10.80
2018-04-14T14:37:15.266Z,10.80
2018-04-14T14:39:44.350Z,10.80
2018-04-14T14:42:12.620Z,10.80
2018-04-14T14:44:41.029Z,10.90
2018-04-14T14:47:09.305Z,10.90
2018-04-14T14:49:38.045Z,10.90
2018-04-14T14:52:06.312Z,11.00
2018-04-14T14:54:34.703Z,11.00
2018-04-14T14:57:02.988Z,11.10
2018-04-14T14:59:31.276Z,11.00
2018-04-14T15:01:59.600Z,11.10
2018-04-14T15:04:27.906Z,11.10
2018-04-14T15:06:56.195Z,11.20
2018-04-14T15:09:24.602Z,11.20
2018-04-14T15:11:52.912Z,11.10
2018-04-14T15:14:21.982Z,11.00
2018-04-14T15:16:50.245Z,11.00
2018-04-14T15:19:18.540Z,11.00
2018-04-14T15:21:47.606Z,10.80
2018-04-14T15:24:15.911Z,10.80
2018-04-14T15:26:44.191Z,10.80
2018-04-14T15:29:13.334Z,10.60
2018-04-14T15:31:42.372Z,10.60
2018-04-14T15:34:10.767Z,10.60
2018-04-14T15:36:39.815Z,10.60
2018-04-14T15:39:08.079Z,10.60
2018-04-14T15:41:36.437Z,10.60
2018-04-14T15:44:04.704Z,10.70
2018-04-14T15:46:32.992Z,10.80
2018-04-14T15:49:01.296Z,10.70
2018-04-14T15:51:29.578Z,10.70
2018-04-14T15:53:57.866Z,10.70
2018-04-14T15:56:26.243Z,10.80
2018-04-14T15:58:54.520Z,10.70
2018-04-14T16:01:22.828Z,10.70
2018-04-14T16:03:51.952Z,10.70
2018-04-14T16:06:20.966Z,10.60
2018-04-14T16:08:49.238Z,10.60
2018-04-14T16:11:17.585Z,10.70
2018-04-14T16:13:47.656Z,10.80
2018-04-14T16:16:15.936Z,10.80
2018-04-14T16:18:44.258Z,10.80
2018-04-14T16:21:12.529Z,10.90
2018-04-14T16:23:40.822Z,10.90
2018-04-14T16:26:09.131Z,10.90
2018-04-14T16:28:37.434Z,10.90
2018-04-14T16:31:06.477Z,11.00
2018-04-14T16:33:34.722Z,11.00
2018-04-14T16:36:03.165Z,11.00
2018-04-14T16:38:31.552Z,11.00
2018-04-14T16:41:00.638Z,11.00
2018-04-14T16:43:28.973Z,11.00
2018-04-14T16:45:57.217Z,11.10
2018-04-14T16:48:27.978Z,11.10
2018-04-14T16:50:56.283Z,11.10
2018-04-14T16:53:24.588Z,11.10
2018-04-14T16:55:52.925Z,11.10
2018-04-14T16:58:21.269Z,11.10
2018-04-14T17:00:50.322Z,11.10
2018-04-14T17:03:18.619Z,11.10
2018-04-14T17:05:46.968Z,11.10
2018-04-14T17:08:15.249Z,11.10
2018-04-14T17:10:43.568Z,11.10
2018-04-14T17:13:11.842Z,11.10
2018-04-14T17:15:40.924Z,11.10
2018-04-14T17:18:10.020Z,11.10
2018-04-14T17:20:39.091Z,11.00
2018-04-14T17:23:07.374Z,11.00
2018-04-14T17:25:35.751Z,11.00
2018-04-14T17:28:04.034Z,11.00
2018-04-14T17:30:32.332Z,11.00
2018-04-14T17:33:00.737Z,11.00
2018-04-14T17:35:29.054Z,11.00
2018-04-14T17:37:57.359Z,11.00
2018-04-14T17:40:26.426Z,11.00
2018-04-14T17:42:54.687Z,11.00
2018-04-14T17:45:23.115Z,11.00
2018-04-14T17:47:52.139Z,11.00
2018-04-14T17:50:20.410Z,11.00
2018-04-14T17:52:48.696Z,11.00
2018-04-14T17:55:16.973Z,11.00
2018-04-14T17:57:46.229Z,11.00
2018-04-14T18:00:15.307Z,11.00
2018-04-14T18:02:44.373Z,11.00
2018-04-14T18:05:12.646Z,11.00
2018-04-14T18:07:40.969Z,11.00
2018-04-14T18:10:10.027Z,10.90
2018-04-14T18:12:38.292Z,10.90
2018-04-14T18:15:06.595Z,10.90
2018-04-14T18:17:34.885Z,11.00
2018-04-14T18:20:03.171Z,11.00
2018-04-14T18:22:32.227Z,11.00
2018-04-14T18:25:00.636Z,11.00
2018-04-14T18:27:28.936Z,10.90
2018-04-14T18:29:58.119Z,10.90
2018-04-14T18:32:27.295Z,11.00
2018-04-14T18:34:56.364Z,11.00
2018-04-14T18:37:24.646Z,11.00
2018-04-14T18:39:52.944Z,11.00
2018-04-14T18:42:22.719Z,11.00
2018-04-14T18:44:51.040Z,11.00
2018-04-14T18:47:19.316Z,11.00
2018-04-14T18:49:48.364Z,11.00
2018-04-14T18:52:16.643Z,11.00
2018-04-14T18:54:44.966Z,11.00
2018-04-14T18:57:13.330Z,11.00
2018-04-14T18:59:41.621Z,10.80
2018-04-14T19:02:09.977Z,10.80
2018-04-14T19:04:38.360Z,10.80
2018-04-14T19:07:06.629Z,10.90
2018-04-14T19:09:34.928Z,10.90
2018-04-14T19:12:04.010Z,10.90
2018-04-14T19:14:32.306Z,10.80
2018-04-14T19:17:02.324Z,10.80
2018-04-14T19:19:31.386Z,10.80
2018-04-14T19:21:59.665Z,10.80
2018-04-14T19:24:27.967Z,10.90
2018-04-14T19:26:57.024Z,11.00
2018-04-14T19:29:25.343Z,11.00
2018-04-14T19:31:55.744Z,10.80
2018-04-14T19:34:24.048Z,10.80
2018-04-14T19:36:53.090Z,10.90
2018-04-14T19:39:21.393Z,10.90
2018-04-14T19:41:51.196Z,10.90
2018-04-14T19:44:20.613Z,10.90
2018-04-14T19:46:48.902Z,10.90
2018-04-14T19:49:17.281Z,10.90
2018-04-14T19:51:46.365Z,10.90
2018-04-14T19:54:14.662Z,10.90
2018-04-14T19:56:43.690Z,10.90
2018-04-14T19:59:12.028Z,10.90
2018-04-14T20:01:42.046Z,11.00
2018-04-14T20:04:11.127Z,11.00
2018-04-14T20:06:39.422Z,11.00
2018-04-14T20:09:07.715Z,11.00
2018-04-14T20:11:36.022Z,11.10
2018-04-14T20:14:04.317Z,11.00
2018-04-14T20:16:32.684Z,11.00
2018-04-14T20:19:01.000Z,11.00
2018-04-14T20:21:30.078Z,11.00
2018-04-14T20:23:58.353Z,11.00
2018-04-14T20:26:26.721Z,11.00
2018-04-14T20:28:55.029Z,11.00
2018-04-14T20:31:24.212Z,11.00
2018-04-14T20:33:52.503Z,11.00
2018-04-14T20:36:21.716Z,11.00
2018-04-14T20:38:50.025Z,11.10
2018-04-14T20:41:18.450Z,11.10
2018-04-14T20:43:46.721Z,11.10
2018-04-14T20:46:15.816Z,11.10
2018-04-14T20:48:44.869Z,11.10
2018-04-14T20:51:13.158Z,11.10
2018-04-14T20:53:41.454Z,11.10
2018-04-14T20:56:09.747Z,11.10
2018-04-14T20:58:38.832Z,11.10
2018-04-14T21:01:07.095Z,11.10
2018-04-14T21:03:35.397Z,11.10
2018-04-14T21:06:04.459Z,11.00
2018-04-14T21:08:32.732Z,11.00
2018-04-14T21:11:01.323Z,11.00
2018-04-14T21:13:30.368Z,11.10
2018-04-14T21:15:58.799Z,11.10
2018-04-14T21:18:27.090Z,11.00
2018-04-14T21:20:55.372Z,11.10
2018-04-14T21:23:24.451Z,11.10
2018-04-14T21:25:52.766Z,11.10
2018-04-14T21:28:21.038Z,11.10
2018-04-14T21:30:49.378Z,11.00
2018-04-14T21:33:17.653Z,11.00
2018-04-14T21:35:46.014Z,11.00
2018-04-14T21:38:14.296Z,11.00
2018-04-14T21:40:42.596Z,11.00
2018-04-14T21:43:11.790Z,11.00
2018-04-14T21:45:40.156Z,11.00
2018-04-14T21:48:08.433Z,11.00
2018-04-14T21:50:36.756Z,11.10
2018-04-14T21:53:05.998Z,11.00
2018-04-14T21:55:34.343Z,11.00
2018-04-14T21:58:02.643Z,11.00
2018-04-14T22:00:30.937Z,11.00
2018-04-14T22:02:59.214Z,11.10
2018-04-14T22:05:27.573Z,11.10
2018-04-14T22:07:55.966Z,11.10
2018-04-14T22:10:24.250Z,11.10
2018-04-14T22:12:52.509Z,11.10
2018-04-14T22:15:20.885Z,11.10
2018-04-14T22:17:49.159Z,11.10
2018-04-14T22:20:17.472Z,11.10
2018-04-14T22:22:46.527Z,11.10
2018-04-14T22:25:14.928Z,11.10
2018-04-14T22:27:43.214Z,11.00
2018-04-14T22:30:11.477Z,11.00
2018-04-14T22:32:39.739Z,11.10
2018-04-14T22:35:07.993Z,11.10
2018-04-14T22:37:37.199Z,11.00
2018-04-14T22:40:05.524Z,11.00
2018-04-14T22:42:34.598Z,11.00
2018-04-14T22:45:04.414Z,11.10
2018-04-14T22:47:32.673Z,11.10
2018-04-14T22:50:01.824Z,11.10
2018-04-14T22:52:30.131Z,11.10
2018-04-14T22:54:58.686Z,11.10
2018-04-14T22:57:26.991Z,11.20
2018-04-14T22:59:55.322Z,11.20
2018-04-14T23:02:24.557Z,11.10
2018-04-14T23:04:52.820Z,11.10
2018-04-14T23:07:21.133Z,11.10
2018-04-14T23:09:49.412Z,11.10
2018-04-14T23:12:17.689Z,11.20
2018-04-14T23:14:45.949Z,11.20
2018-04-14T23:17:14.249Z,11.30
2018-04-14T23:19:42.535Z,11.20
2018-04-14T23:22:10.809Z,11.30
2018-04-14T23:24:39.064Z,11.30
2018-04-14T23:27:07.357Z,11.30
2018-04-14T23:29:36.420Z,11.30
2018-04-14T23:32:04.670Z,11.30
2018-04-14T23:34:32.921Z,11.20
2018-04-14T23:37:02.801Z,11.20
2018-04-14T23:39:31.081Z,11.20
2018-04-14T23:41:59.370Z,11.20
2018-04-14T23:44:27.625Z,11.20
2018-04-14T23:46:57.205Z,11.20
2018-04-14T23:49:25.517Z,11.20
2018-04-14T23:51:53.790Z,11.20
2018-04-14T23:54:22.068Z,11.30
2018-04-14T23:56:51.151Z,11.20
2018-04-14T23:59:19.497Z,11.20
